sensor_id;sensor_type;location;lat;lon;timestamp;P1;durP1;ratioP1;P2;durP2;ratioP2
10365;SDS011;5229;41.820;23.490;2023-02-25T00:01:02;9.23;;;4.60;;
10365;SDS011;5229;41.820;23.490;2023-02-25T00:03:30;7.67;;;4.60;;
10365;SDS011;5229;41.820;23.490;2023-02-25T00:05:59;8.87;;;4.83;;
10365;SDS011;5229;41.820;23.490;2023-02-25T00:08:26;8.30;;;4.20;;
10365;SDS011;5229;41.820;23.490;2023-02-25T00:10:57;7.33;;;4.60;;
10365;SDS011;5229;41.820;23.490;2023-02-25T00:13:25;10.70;;;4.60;;
10365;SDS011;5229;41.820;23.490;2023-02-25T00:15:52;6.13;;;4.00;;
10365;SDS011;5229;41.820;23.490;2023-02-25T00:18:22;5.57;;;4.10;;
10365;SDS011;5229;41.820;23.490;2023-02-25T00:20:49;7.57;;;4.27;;
10365;SDS011;5229;41.820;23.490;2023-02-25T00:23:17;8.73;;;5.27;;
10365;SDS011;5229;41.820;23.490;2023-02-25T00:25:44;7.37;;;4.63;;
10365;SDS011;5229;41.820;23.490;2023-02-25T00:28:12;9.40;;;4.60;;
10365;SDS011;5229;41.820;23.490;2023-02-25T00:30:40;8.93;;;5.23;;
10365;SDS011;5229;41.820;23.490;2023-02-25T00:33:07;7.23;;;4.53;;
10365;SDS011;5229;41.820;23.490;2023-02-25T00:35:39;8.53;;;4.93;;
10365;SDS011;5229;41.820;23.490;2023-02-25T00:38:06;8.73;;;4.70;;
10365;SDS011;5229;41.820;23.490;2023-02-25T00:40:37;8.80;;;5.07;;
10365;SDS011;5229;41.820;23.490;2023-02-25T00:43:05;9.33;;;4.80;;
10365;SDS011;5229;41.820;23.490;2023-02-25T00:45:33;8.10;;;4.67;;
10365;SDS011;5229;41.820;23.490;2023-02-25T00:47:59;9.00;;;4.60;;
10365;SDS011;5229;41.820;23.490;2023-02-25T00:50:26;8.57;;;4.87;;
10365;SDS011;5229;41.820;23.490;2023-02-25T00:52:53;10.57;;;4.87;;
10365;SDS011;5229;41.820;23.490;2023-02-25T00:55:20;6.53;;;3.97;;
10365;SDS011;5229;41.820;23.490;2023-02-25T00:57:48;8.73;;;4.23;;
10365;SDS011;5229;41.820;23.490;2023-02-25T01:00:15;9.00;;;4.70;;
10365;SDS011;5229;41.820;23.490;2023-02-25T01:02:43;8.77;;;4.47;;
10365;SDS011;5229;41.820;23.490;2023-02-25T01:05:11;10.93;;;5.00;;
10365;SDS011;5229;41.820;23.490;2023-02-25T01:07:37;8.63;;;4.83;;
10365;SDS011;5229;41.820;23.490;2023-02-25T01:10:04;11.10;;;5.43;;
10365;SDS011;5229;41.820;23.490;2023-02-25T01:12:32;7.57;;;4.43;;
10365;SDS011;5229;41.820;23.490;2023-02-25T01:15:00;9.90;;;5.03;;
10365;SDS011;5229;41.820;23.490;2023-02-25T01:17:27;8.07;;;4.70;;
10365;SDS011;5229;41.820;23.490;2023-02-25T01:19:54;7.30;;;4.50;;
10365;SDS011;5229;41.820;23.490;2023-02-25T01:22:21;9.90;;;4.90;;
10365;SDS011;5229;41.820;23.490;2023-02-25T01:24:48;12.03;;;5.33;;
10365;SDS011;5229;41.820;23.490;2023-02-25T01:27:15;7.30;;;4.90;;
10365;SDS011;5229;41.820;23.490;2023-02-25T01:29:42;6.13;;;4.87;;
10365;SDS011;5229;41.820;23.490;2023-02-25T01:32:11;7.87;;;5.60;;
10365;SDS011;5229;41.820;23.490;2023-02-25T01:34:39;11.83;;;5.87;;
10365;SDS011;5229;41.820;23.490;2023-02-25T01:37:06;11.67;;;6.23;;
10365;SDS011;5229;41.820;23.490;2023-02-25T01:39:33;7.80;;;4.87;;
10365;SDS011;5229;41.820;23.490;2023-02-25T01:42:02;7.30;;;4.90;;
10365;SDS011;5229;41.820;23.490;2023-02-25T01:44:31;7.53;;;4.57;;
10365;SDS011;5229;41.820;23.490;2023-02-25T01:46:59;12.43;;;4.90;;
10365;SDS011;5229;41.820;23.490;2023-02-25T01:49:28;11.03;;;5.00;;
10365;SDS011;5229;41.820;23.490;2023-02-25T01:52:00;8.33;;;4.83;;
10365;SDS011;5229;41.820;23.490;2023-02-25T01:54:29;8.53;;;4.03;;
10365;SDS011;5229;41.820;23.490;2023-02-25T01:56:58;6.70;;;3.83;;
10365;SDS011;5229;41.820;23.490;2023-02-25T01:59:26;10.00;;;4.47;;
10365;SDS011;5229;41.820;23.490;2023-02-25T02:01:54;8.53;;;4.33;;
10365;SDS011;5229;41.820;23.490;2023-02-25T02:04:22;9.20;;;5.03;;
10365;SDS011;5229;41.820;23.490;2023-02-25T02:06:51;9.77;;;4.30;;
10365;SDS011;5229;41.820;23.490;2023-02-25T02:09:20;13.87;;;5.77;;
10365;SDS011;5229;41.820;23.490;2023-02-25T02:11:50;8.53;;;4.60;;
10365;SDS011;5229;41.820;23.490;2023-02-25T02:14:18;9.47;;;4.87;;
10365;SDS011;5229;41.820;23.490;2023-02-25T02:20:01;8.47;;;4.40;;
10365;SDS011;5229;41.820;23.490;2023-02-25T02:22:40;10.43;;;4.77;;
10365;SDS011;5229;41.820;23.490;2023-02-25T02:25:37;6.17;;;4.27;;
10365;SDS011;5229;41.820;23.490;2023-02-25T02:28:38;8.47;;;4.87;;
10365;SDS011;5229;41.820;23.490;2023-02-25T02:31:38;8.10;;;4.57;;
10365;SDS011;5229;41.820;23.490;2023-02-25T02:34:14;6.83;;;4.37;;
10365;SDS011;5229;41.820;23.490;2023-02-25T02:36:48;7.57;;;4.53;;
10365;SDS011;5229;41.820;23.490;2023-02-25T02:39:24;11.43;;;4.40;;
10365;SDS011;5229;41.820;23.490;2023-02-25T02:41:58;7.90;;;5.60;;
10365;SDS011;5229;41.820;23.490;2023-02-25T02:44:37;12.00;;;5.23;;
10365;SDS011;5229;41.820;23.490;2023-02-25T02:47:13;7.27;;;4.83;;
10365;SDS011;5229;41.820;23.490;2023-02-25T02:49:42;6.50;;;4.87;;
10365;SDS011;5229;41.820;23.490;2023-02-25T02:52:13;13.03;;;5.20;;
10365;SDS011;5229;41.820;23.490;2023-02-25T02:54:44;10.00;;;5.10;;
10365;SDS011;5229;41.820;23.490;2023-02-25T02:57:17;6.67;;;4.10;;
10365;SDS011;5229;41.820;23.490;2023-02-25T02:59:47;10.60;;;4.50;;
10365;SDS011;5229;41.820;23.490;2023-02-25T03:02:22;6.90;;;4.33;;
10365;SDS011;5229;41.820;23.490;2023-02-25T03:04:54;9.37;;;4.70;;
10365;SDS011;5229;41.820;23.490;2023-02-25T03:07:25;9.90;;;4.97;;
10365;SDS011;5229;41.820;23.490;2023-02-25T03:09:53;10.60;;;5.20;;
10365;SDS011;5229;41.820;23.490;2023-02-25T03:12:23;7.23;;;4.47;;
10365;SDS011;5229;41.820;23.490;2023-02-25T03:14:50;9.23;;;5.73;;
10365;SDS011;5229;41.820;23.490;2023-02-25T03:17:18;9.47;;;5.47;;
10365;SDS011;5229;41.820;23.490;2023-02-25T03:19:50;11.03;;;5.90;;
10365;SDS011;5229;41.820;23.490;2023-02-25T03:22:25;10.10;;;5.43;;
10365;SDS011;5229;41.820;23.490;2023-02-25T03:24:56;7.97;;;4.90;;
10365;SDS011;5229;41.820;23.490;2023-02-25T03:27:29;7.40;;;4.87;;
10365;SDS011;5229;41.820;23.490;2023-02-25T03:30:00;10.80;;;5.00;;
10365;SDS011;5229;41.820;23.490;2023-02-25T03:32:32;7.87;;;4.60;;
10365;SDS011;5229;41.820;23.490;2023-02-25T03:35:03;15.43;;;5.87;;
10365;SDS011;5229;41.820;23.490;2023-02-25T03:37:33;8.27;;;4.80;;
10365;SDS011;5229;41.820;23.490;2023-02-25T03:40:04;8.83;;;5.37;;
10365;SDS011;5229;41.820;23.490;2023-02-25T03:42:37;9.23;;;4.90;;
10365;SDS011;5229;41.820;23.490;2023-02-25T03:45:09;11.30;;;4.93;;
10365;SDS011;5229;41.820;23.490;2023-02-25T03:47:40;9.17;;;4.80;;
10365;SDS011;5229;41.820;23.490;2023-02-25T03:50:09;9.17;;;4.97;;
10365;SDS011;5229;41.820;23.490;2023-02-25T03:52:39;9.90;;;5.33;;
10365;SDS011;5229;41.820;23.490;2023-02-25T03:55:07;6.40;;;4.67;;
10365;SDS011;5229;41.820;23.490;2023-02-25T03:57:36;8.83;;;4.80;;
10365;SDS011;5229;41.820;23.490;2023-02-25T04:00:05;9.50;;;4.93;;
10365;SDS011;5229;41.820;23.490;2023-02-25T04:02:41;8.53;;;4.80;;
10365;SDS011;5229;41.820;23.490;2023-02-25T04:05:09;9.53;;;5.20;;
10365;SDS011;5229;41.820;23.490;2023-02-25T04:07:36;8.00;;;5.23;;
10365;SDS011;5229;41.820;23.490;2023-02-25T04:10:05;13.40;;;5.13;;
10365;SDS011;5229;41.820;23.490;2023-02-25T04:12:33;10.33;;;5.40;;
10365;SDS011;5229;41.820;23.490;2023-02-25T04:15:00;13.63;;;4.33;;
10365;SDS011;5229;41.820;23.490;2023-02-25T04:17:26;8.50;;;5.10;;
10365;SDS011;5229;41.820;23.490;2023-02-25T04:19:55;7.13;;;4.67;;
10365;SDS011;5229;41.820;23.490;2023-02-25T04:22:21;9.67;;;5.00;;
10365;SDS011;5229;41.820;23.490;2023-02-25T04:24:48;11.67;;;5.07;;
10365;SDS011;5229;41.820;23.490;2023-02-25T04:27:15;10.23;;;5.63;;
10365;SDS011;5229;41.820;23.490;2023-02-25T04:29:42;11.20;;;6.43;;
10365;SDS011;5229;41.820;23.490;2023-02-25T04:32:10;8.57;;;4.90;;
10365;SDS011;5229;41.820;23.490;2023-02-25T04:34:37;7.27;;;5.43;;
10365;SDS011;5229;41.820;23.490;2023-02-25T04:37:05;11.23;;;6.27;;
10365;SDS011;5229;41.820;23.490;2023-02-25T04:39:33;8.93;;;6.20;;
10365;SDS011;5229;41.820;23.490;2023-02-25T04:42:00;10.17;;;6.20;;
10365;SDS011;5229;41.820;23.490;2023-02-25T04:44:27;9.97;;;5.90;;
10365;SDS011;5229;41.820;23.490;2023-02-25T04:46:55;10.77;;;6.33;;
10365;SDS011;5229;41.820;23.490;2023-02-25T04:49:22;9.00;;;6.23;;
10365;SDS011;5229;41.820;23.490;2023-02-25T04:51:49;10.07;;;6.43;;
10365;SDS011;5229;41.820;23.490;2023-02-25T04:54:18;8.27;;;5.80;;
10365;SDS011;5229;41.820;23.490;2023-02-25T04:56:45;10.53;;;5.83;;
10365;SDS011;5229;41.820;23.490;2023-02-25T04:59:13;11.33;;;6.47;;
10365;SDS011;5229;41.820;23.490;2023-02-25T05:01:40;10.07;;;6.27;;
10365;SDS011;5229;41.820;23.490;2023-02-25T05:04:08;10.17;;;6.40;;
10365;SDS011;5229;41.820;23.490;2023-02-25T05:06:35;16.00;;;6.10;;
10365;SDS011;5229;41.820;23.490;2023-02-25T05:09:03;11.70;;;5.83;;
10365;SDS011;5229;41.820;23.490;2023-02-25T05:11:32;9.17;;;5.77;;
10365;SDS011;5229;41.820;23.490;2023-02-25T05:13:59;6.93;;;5.13;;
10365;SDS011;5229;41.820;23.490;2023-02-25T05:16:26;9.60;;;5.70;;
10365;SDS011;5229;41.820;23.490;2023-02-25T05:18:53;13.13;;;6.00;;
10365;SDS011;5229;41.820;23.490;2023-02-25T05:21:20;8.50;;;6.17;;
10365;SDS011;5229;41.820;23.490;2023-02-25T05:23:49;11.33;;;6.70;;
10365;SDS011;5229;41.820;23.490;2023-02-25T05:26:18;11.47;;;6.47;;
10365;SDS011;5229;41.820;23.490;2023-02-25T05:28:48;8.37;;;5.80;;
10365;SDS011;5229;41.820;23.490;2023-02-25T05:31:17;9.70;;;6.30;;
10365;SDS011;5229;41.820;23.490;2023-02-25T05:33:45;10.53;;;6.30;;
10365;SDS011;5229;41.820;23.490;2023-02-25T05:36:13;9.90;;;6.03;;
10365;SDS011;5229;41.820;23.490;2023-02-25T05:38:41;16.67;;;6.70;;
10365;SDS011;5229;41.820;23.490;2023-02-25T05:41:09;9.63;;;6.00;;
10365;SDS011;5229;41.820;23.490;2023-02-25T05:43:37;9.47;;;5.83;;
10365;SDS011;5229;41.820;23.490;2023-02-25T05:46:05;11.73;;;6.13;;
10365;SDS011;5229;41.820;23.490;2023-02-25T05:48:35;10.97;;;5.73;;
10365;SDS011;5229;41.820;23.490;2023-02-25T05:51:04;13.47;;;6.60;;
10365;SDS011;5229;41.820;23.490;2023-02-25T05:53:32;12.37;;;6.70;;
10365;SDS011;5229;41.820;23.490;2023-02-25T05:56:02;11.30;;;6.27;;
10365;SDS011;5229;41.820;23.490;2023-02-25T05:58:29;11.43;;;6.10;;
10365;SDS011;5229;41.820;23.490;2023-02-25T06:00:57;9.53;;;6.13;;
10365;SDS011;5229;41.820;23.490;2023-02-25T06:03:25;10.27;;;5.53;;
10365;SDS011;5229;41.820;23.490;2023-02-25T06:05:52;8.73;;;6.00;;
10365;SDS011;5229;41.820;23.490;2023-02-25T06:08:19;8.27;;;5.73;;
10365;SDS011;5229;41.820;23.490;2023-02-25T06:10:45;17.10;;;9.00;;
10365;SDS011;5229;41.820;23.490;2023-02-25T06:13:12;14.20;;;7.23;;
10365;SDS011;5229;41.820;23.490;2023-02-25T06:15:40;9.70;;;7.07;;
10365;SDS011;5229;41.820;23.490;2023-02-25T06:18:08;9.87;;;6.43;;
10365;SDS011;5229;41.820;23.490;2023-02-25T06:20:36;17.33;;;10.10;;
10365;SDS011;5229;41.820;23.490;2023-02-25T06:23:03;19.63;;;14.30;;
10365;SDS011;5229;41.820;23.490;2023-02-25T06:25:30;21.53;;;15.40;;
10365;SDS011;5229;41.820;23.490;2023-02-25T06:27:57;24.10;;;16.63;;
10365;SDS011;5229;41.820;23.490;2023-02-25T06:30:25;18.67;;;14.07;;
10365;SDS011;5229;41.820;23.490;2023-02-25T06:32:52;20.53;;;14.03;;
10365;SDS011;5229;41.820;23.490;2023-02-25T06:35:19;24.67;;;15.50;;
10365;SDS011;5229;41.820;23.490;2023-02-25T06:37:49;21.13;;;14.83;;
10365;SDS011;5229;41.820;23.490;2023-02-25T06:40:16;19.27;;;14.47;;
10365;SDS011;5229;41.820;23.490;2023-02-25T06:42:43;19.90;;;13.13;;
10365;SDS011;5229;41.820;23.490;2023-02-25T06:45:10;17.80;;;13.40;;
10365;SDS011;5229;41.820;23.490;2023-02-25T06:47:37;18.23;;;13.43;;
10365;SDS011;5229;41.820;23.490;2023-02-25T06:50:04;22.37;;;13.77;;
10365;SDS011;5229;41.820;23.490;2023-02-25T06:52:32;20.20;;;12.57;;
10365;SDS011;5229;41.820;23.490;2023-02-25T06:55:00;21.67;;;13.17;;
10365;SDS011;5229;41.820;23.490;2023-02-25T06:57:30;18.90;;;12.27;;
10365;SDS011;5229;41.820;23.490;2023-02-25T06:59:57;19.43;;;11.67;;
10365;SDS011;5229;41.820;23.490;2023-02-25T07:02:24;17.23;;;11.83;;
10365;SDS011;5229;41.820;23.490;2023-02-25T07:04:51;19.93;;;10.97;;
10365;SDS011;5229;41.820;23.490;2023-02-25T07:07:18;19.93;;;12.03;;
10365;SDS011;5229;41.820;23.490;2023-02-25T07:09:45;23.43;;;11.07;;
10365;SDS011;5229;41.820;23.490;2023-02-25T07:12:13;16.63;;;11.33;;
10365;SDS011;5229;41.820;23.490;2023-02-25T07:14:40;14.90;;;10.30;;
10365;SDS011;5229;41.820;23.490;2023-02-25T07:17:07;14.27;;;9.37;;
10365;SDS011;5229;41.820;23.490;2023-02-25T07:19:33;11.87;;;8.10;;
10365;SDS011;5229;41.820;23.490;2023-02-25T07:22:00;13.07;;;8.13;;
10365;SDS011;5229;41.820;23.490;2023-02-25T07:24:27;12.57;;;8.73;;
10365;SDS011;5229;41.820;23.490;2023-02-25T07:26:54;16.10;;;11.13;;
10365;SDS011;5229;41.820;23.490;2023-02-25T07:29:22;14.73;;;11.47;;
10365;SDS011;5229;41.820;23.490;2023-02-25T07:31:49;37.73;;;24.57;;
10365;SDS011;5229;41.820;23.490;2023-02-25T07:34:16;42.37;;;28.07;;
10365;SDS011;5229;41.820;23.490;2023-02-25T07:36:43;31.67;;;18.80;;
10365;SDS011;5229;41.820;23.490;2023-02-25T07:39:10;28.97;;;20.93;;
10365;SDS011;5229;41.820;23.490;2023-02-25T07:41:37;30.17;;;22.37;;
10365;SDS011;5229;41.820;23.490;2023-02-25T07:44:04;35.43;;;22.40;;
10365;SDS011;5229;41.820;23.490;2023-02-25T07:46:34;32.03;;;21.83;;
10365;SDS011;5229;41.820;23.490;2023-02-25T07:49:02;24.77;;;17.63;;
10365;SDS011;5229;41.820;23.490;2023-02-25T07:51:29;18.53;;;13.30;;
10365;SDS011;5229;41.820;23.490;2023-02-25T07:53:56;17.43;;;12.50;;
10365;SDS011;5229;41.820;23.490;2023-02-25T07:56:25;17.70;;;13.77;;
10365;SDS011;5229;41.820;23.490;2023-02-25T07:58:54;26.40;;;15.33;;
10365;SDS011;5229;41.820;23.490;2023-02-25T08:01:23;21.10;;;16.47;;
10365;SDS011;5229;41.820;23.490;2023-02-25T08:03:53;23.50;;;17.13;;
10365;SDS011;5229;41.820;23.490;2023-02-25T08:06:21;19.97;;;13.47;;
10365;SDS011;5229;41.820;23.490;2023-02-25T08:08:49;19.93;;;14.50;;
10365;SDS011;5229;41.820;23.490;2023-02-25T08:11:16;19.10;;;13.13;;
10365;SDS011;5229;41.820;23.490;2023-02-25T08:13:44;23.40;;;13.70;;
10365;SDS011;5229;41.820;23.490;2023-02-25T08:16:12;19.00;;;13.97;;
10365;SDS011;5229;41.820;23.490;2023-02-25T08:18:40;22.87;;;15.57;;
10365;SDS011;5229;41.820;23.490;2023-02-25T08:21:09;26.00;;;16.30;;
10365;SDS011;5229;41.820;23.490;2023-02-25T08:23:37;21.53;;;14.27;;
10365;SDS011;5229;41.820;23.490;2023-02-25T08:26:04;18.00;;;14.53;;
10365;SDS011;5229;41.820;23.490;2023-02-25T08:28:31;24.13;;;18.57;;
10365;SDS011;5229;41.820;23.490;2023-02-25T08:30:59;29.40;;;19.20;;
10365;SDS011;5229;41.820;23.490;2023-02-25T08:33:26;20.80;;;16.13;;
10365;SDS011;5229;41.820;23.490;2023-02-25T08:35:53;22.03;;;16.40;;
10365;SDS011;5229;41.820;23.490;2023-02-25T08:38:22;24.13;;;17.07;;
10365;SDS011;5229;41.820;23.490;2023-02-25T08:40:49;19.70;;;13.70;;
10365;SDS011;5229;41.820;23.490;2023-02-25T08:43:16;16.37;;;12.90;;
10365;SDS011;5229;41.820;23.490;2023-02-25T08:45:43;21.60;;;13.47;;
10365;SDS011;5229;41.820;23.490;2023-02-25T08:48:09;21.73;;;13.30;;
10365;SDS011;5229;41.820;23.490;2023-02-25T08:50:37;18.20;;;14.40;;
10365;SDS011;5229;41.820;23.490;2023-02-25T08:53:04;20.03;;;14.73;;
10365;SDS011;5229;41.820;23.490;2023-02-25T08:55:35;21.43;;;15.23;;
10365;SDS011;5229;41.820;23.490;2023-02-25T08:58:03;21.53;;;13.70;;
10365;SDS011;5229;41.820;23.490;2023-02-25T09:00:30;19.60;;;14.93;;
10365;SDS011;5229;41.820;23.490;2023-02-25T09:02:57;17.20;;;12.30;;
10365;SDS011;5229;41.820;23.490;2023-02-25T09:05:24;18.57;;;12.13;;
10365;SDS011;5229;41.820;23.490;2023-02-25T09:07:51;17.50;;;12.53;;
10365;SDS011;5229;41.820;23.490;2023-02-25T09:10:21;15.17;;;10.60;;
10365;SDS011;5229;41.820;23.490;2023-02-25T09:12:49;17.80;;;13.07;;
10365;SDS011;5229;41.820;23.490;2023-02-25T09:15:17;18.10;;;12.83;;
10365;SDS011;5229;41.820;23.490;2023-02-25T09:17:45;15.70;;;12.30;;
10365;SDS011;5229;41.820;23.490;2023-02-25T09:20:12;19.90;;;11.67;;
10365;SDS011;5229;41.820;23.490;2023-02-25T09:22:42;18.57;;;12.53;;
10365;SDS011;5229;41.820;23.490;2023-02-25T09:25:09;14.07;;;11.00;;
10365;SDS011;5229;41.820;23.490;2023-02-25T09:27:36;18.53;;;13.03;;
10365;SDS011;5229;41.820;23.490;2023-02-25T09:30:04;18.13;;;12.43;;
10365;SDS011;5229;41.820;23.490;2023-02-25T09:32:32;16.43;;;12.17;;
10365;SDS011;5229;41.820;23.490;2023-02-25T09:34:59;18.03;;;13.07;;
10365;SDS011;5229;41.820;23.490;2023-02-25T09:37:31;15.50;;;12.40;;
10365;SDS011;5229;41.820;23.490;2023-02-25T09:39:58;19.10;;;12.33;;
10365;SDS011;5229;41.820;23.490;2023-02-25T09:42:26;17.90;;;11.87;;
10365;SDS011;5229;41.820;23.490;2023-02-25T09:45:11;17.07;;;11.17;;
10365;SDS011;5229;41.820;23.490;2023-02-25T09:47:43;15.23;;;11.00;;
10365;SDS011;5229;41.820;23.490;2023-02-25T09:50:16;17.87;;;12.40;;
10365;SDS011;5229;41.820;23.490;2023-02-25T09:52:48;15.17;;;11.03;;
10365;SDS011;5229;41.820;23.490;2023-02-25T09:55:28;14.70;;;10.57;;
10365;SDS011;5229;41.820;23.490;2023-02-25T09:58:00;14.63;;;10.17;;
10365;SDS011;5229;41.820;23.490;2023-02-25T10:00:32;15.03;;;11.80;;
10365;SDS011;5229;41.820;23.490;2023-02-25T10:03:09;14.47;;;10.00;;
10365;SDS011;5229;41.820;23.490;2023-02-25T10:05:41;12.57;;;9.07;;
10365;SDS011;5229;41.820;23.490;2023-02-25T10:08:15;10.63;;;9.43;;
10365;SDS011;5229;41.820;23.490;2023-02-25T10:10:49;11.40;;;8.87;;
10365;SDS011;5229;41.820;23.490;2023-02-25T10:13:27;13.13;;;8.50;;
10365;SDS011;5229;41.820;23.490;2023-02-25T10:16:04;12.07;;;8.40;;
10365;SDS011;5229;41.820;23.490;2023-02-25T10:18:45;7.87;;;6.57;;
10365;SDS011;5229;41.820;23.490;2023-02-25T10:21:22;12.13;;;7.10;;
10365;SDS011;5229;41.820;23.490;2023-02-25T10:24:08;7.97;;;7.13;;
10365;SDS011;5229;41.820;23.490;2023-02-25T10:26:43;9.70;;;7.10;;
10365;SDS011;5229;41.820;23.490;2023-02-25T10:29:16;10.60;;;7.47;;
10365;SDS011;5229;41.820;23.490;2023-02-25T10:31:52;14.80;;;7.60;;
10365;SDS011;5229;41.820;23.490;2023-02-25T10:34:24;8.80;;;6.55;;
10365;SDS011;5229;41.820;23.490;2023-02-25T10:36:54;9.57;;;6.78;;
10365;SDS011;5229;41.820;23.490;2023-02-25T10:39:22;10.98;;;7.15;;
10365;SDS011;5229;41.820;23.490;2023-02-25T10:41:50;11.07;;;7.18;;
10365;SDS011;5229;41.820;23.490;2023-02-25T10:44:17;14.00;;;8.07;;
10365;SDS011;5229;41.820;23.490;2023-02-25T10:46:45;10.20;;;8.02;;
10365;SDS011;5229;41.820;23.490;2023-02-25T10:49:20;7.18;;;6.38;;
10365;SDS011;5229;41.820;23.490;2023-02-25T10:51:56;13.15;;;7.95;;
10365;SDS011;5229;41.820;23.490;2023-02-25T10:54:27;10.32;;;6.72;;
10365;SDS011;5229;41.820;23.490;2023-02-25T10:56:55;12.35;;;7.65;;
10365;SDS011;5229;41.820;23.490;2023-02-25T10:59:26;13.63;;;7.85;;
10365;SDS011;5229;41.820;23.490;2023-02-25T11:01:55;11.50;;;6.38;;
10365;SDS011;5229;41.820;23.490;2023-02-25T11:04:26;8.88;;;6.68;;
10365;SDS011;5229;41.820;23.490;2023-02-25T11:06:57;8.07;;;6.68;;
10365;SDS011;5229;41.820;23.490;2023-02-25T11:09:28;8.82;;;6.47;;
10365;SDS011;5229;41.820;23.490;2023-02-25T11:12:00;7.75;;;6.35;;
10365;SDS011;5229;41.820;23.490;2023-02-25T11:14:36;8.65;;;6.05;;
10365;SDS011;5229;41.820;23.490;2023-02-25T11:17:05;9.45;;;6.82;;
10365;SDS011;5229;41.820;23.490;2023-02-25T11:19:39;13.15;;;5.97;;
10365;SDS011;5229;41.820;23.490;2023-02-25T11:22:09;8.13;;;5.93;;
10365;SDS011;5229;41.820;23.490;2023-02-25T11:24:41;11.57;;;5.83;;
10365;SDS011;5229;41.820;23.490;2023-02-25T11:27:19;7.13;;;5.77;;
10365;SDS011;5229;41.820;23.490;2023-02-25T11:29:51;6.43;;;5.20;;
10365;SDS011;5229;41.820;23.490;2023-02-25T11:32:19;8.23;;;5.90;;
10365;SDS011;5229;41.820;23.490;2023-02-25T11:34:51;14.70;;;6.47;;
10365;SDS011;5229;41.820;23.490;2023-02-25T11:37:28;8.00;;;4.60;;
10365;SDS011;5229;41.820;23.490;2023-02-25T11:40:01;13.63;;;5.27;;
10365;SDS011;5229;41.820;23.490;2023-02-25T11:42:32;8.93;;;4.70;;
10365;SDS011;5229;41.820;23.490;2023-02-25T11:44:59;12.90;;;5.83;;
10365;SDS011;5229;41.820;23.490;2023-02-25T11:47:27;9.73;;;4.77;;
10365;SDS011;5229;41.820;23.490;2023-02-25T11:50:08;9.37;;;5.57;;
10365;SDS011;5229;41.820;23.490;2023-02-25T11:52:46;12.70;;;5.13;;
10365;SDS011;5229;41.820;23.490;2023-02-25T11:55:23;11.23;;;4.87;;
10365;SDS011;5229;41.820;23.490;2023-02-25T11:58:04;10.87;;;5.37;;
10365;SDS011;5229;41.820;23.490;2023-02-25T12:00:42;10.33;;;5.53;;
10365;SDS011;5229;41.820;23.490;2023-02-25T12:03:34;9.63;;;5.33;;
10365;SDS011;5229;41.820;23.490;2023-02-25T12:06:19;10.03;;;5.83;;
10365;SDS011;5229;41.820;23.490;2023-02-25T12:12:09;8.13;;;4.23;;
10365;SDS011;5229;41.820;23.490;2023-02-25T12:15:02;12.30;;;4.53;;
10365;SDS011;5229;41.820;23.490;2023-02-25T12:17:52;9.37;;;4.47;;
10365;SDS011;5229;41.820;23.490;2023-02-25T12:20:49;11.17;;;5.80;;
10365;SDS011;5229;41.820;23.490;2023-02-25T12:23:48;10.03;;;5.43;;
10365;SDS011;5229;41.820;23.490;2023-02-25T12:29:34;8.20;;;4.30;;
10365;SDS011;5229;41.820;23.490;2023-02-25T12:32:17;11.87;;;3.90;;
10365;SDS011;5229;41.820;23.490;2023-02-25T12:35:06;9.70;;;4.60;;
10365;SDS011;5229;41.820;23.490;2023-02-25T12:38:11;11.47;;;4.70;;
10365;SDS011;5229;41.820;23.490;2023-02-25T12:41:16;7.80;;;3.90;;
10365;SDS011;5229;41.820;23.490;2023-02-25T12:43:58;11.03;;;5.33;;
10365;SDS011;5229;41.820;23.490;2023-02-25T12:46:45;12.73;;;6.00;;
10365;SDS011;5229;41.820;23.490;2023-02-25T12:49:49;12.80;;;6.23;;
10365;SDS011;5229;41.820;23.490;2023-02-25T12:52:32;11.73;;;6.57;;
10365;SDS011;5229;41.820;23.490;2023-02-25T12:55:18;12.10;;;5.13;;
10365;SDS011;5229;41.820;23.490;2023-02-25T12:58:12;6.77;;;3.70;;
10365;SDS011;5229;41.820;23.490;2023-02-25T13:01:04;8.80;;;4.00;;
10365;SDS011;5229;41.820;23.490;2023-02-25T13:07:09;18.50;;;12.53;;
10365;SDS011;5229;41.820;23.490;2023-02-25T13:13:24;10.47;;;6.67;;
10365;SDS011;5229;41.820;23.490;2023-02-25T13:16:17;15.23;;;8.30;;
10365;SDS011;5229;41.820;23.490;2023-02-25T13:19:03;13.07;;;5.47;;
10365;SDS011;5229;41.820;23.490;2023-02-25T13:21:47;11.20;;;5.27;;
10365;SDS011;5229;41.820;23.490;2023-02-25T13:24:24;11.37;;;6.10;;
10365;SDS011;5229;41.820;23.490;2023-02-25T13:27:17;10.53;;;8.63;;
10365;SDS011;5229;41.820;23.490;2023-02-25T13:30:14;9.63;;;5.60;;
10365;SDS011;5229;41.820;23.490;2023-02-25T13:32:50;9.90;;;4.33;;
10365;SDS011;5229;41.820;23.490;2023-02-25T13:35:31;10.70;;;4.20;;
10365;SDS011;5229;41.820;23.490;2023-02-25T13:38:11;12.17;;;3.97;;
10365;SDS011;5229;41.820;23.490;2023-02-25T13:41:03;9.60;;;4.07;;
10365;SDS011;5229;41.820;23.490;2023-02-25T13:44:02;4.80;;;3.17;;
10365;SDS011;5229;41.820;23.490;2023-02-25T13:46:48;9.37;;;3.23;;
10365;SDS011;5229;41.820;23.490;2023-02-25T13:49:39;8.57;;;3.37;;
10365;SDS011;5229;41.820;23.490;2023-02-25T13:52:31;5.93;;;3.07;;
10365;SDS011;5229;41.820;23.490;2023-02-25T13:58:23;10.43;;;5.60;;
10365;SDS011;5229;41.820;23.490;2023-02-25T14:01:12;8.70;;;4.97;;
10365;SDS011;5229;41.820;23.490;2023-02-25T14:04:18;8.33;;;3.70;;
10365;SDS011;5229;41.820;23.490;2023-02-25T14:07:21;4.77;;;3.13;;
10365;SDS011;5229;41.820;23.490;2023-02-25T14:13:08;8.40;;;3.10;;
10365;SDS011;5229;41.820;23.490;2023-02-25T14:15:54;11.13;;;3.60;;
10365;SDS011;5229;41.820;23.490;2023-02-25T14:18:36;15.33;;;3.77;;
10365;SDS011;5229;41.820;23.490;2023-02-25T14:21:27;5.93;;;3.57;;
10365;SDS011;5229;41.820;23.490;2023-02-25T14:24:11;5.63;;;3.00;;
10365;SDS011;5229;41.820;23.490;2023-02-25T14:26:44;6.50;;;4.77;;
10365;SDS011;5229;41.820;23.490;2023-02-25T14:29:21;10.57;;;3.47;;
10365;SDS011;5229;41.820;23.490;2023-02-25T14:32:03;12.63;;;3.87;;
10365;SDS011;5229;41.820;23.490;2023-02-25T14:35:00;8.67;;;4.33;;
10365;SDS011;5229;41.820;23.490;2023-02-25T14:37:54;14.40;;;8.60;;
10365;SDS011;5229;41.820;23.490;2023-02-25T14:40:33;12.83;;;7.77;;
10365;SDS011;5229;41.820;23.490;2023-02-25T14:43:25;12.70;;;4.33;;
10365;SDS011;5229;41.820;23.490;2023-02-25T14:45:56;7.00;;;3.90;;
10365;SDS011;5229;41.820;23.490;2023-02-25T14:48:32;6.57;;;3.43;;
10365;SDS011;5229;41.820;23.490;2023-02-25T14:51:11;6.40;;;4.17;;
10365;SDS011;5229;41.820;23.490;2023-02-25T14:54:06;8.27;;;3.60;;
10365;SDS011;5229;41.820;23.490;2023-02-25T14:57:06;9.57;;;3.87;;
10365;SDS011;5229;41.820;23.490;2023-02-25T15:02:59;6.93;;;3.97;;
10365;SDS011;5229;41.820;23.490;2023-02-25T15:05:42;7.73;;;5.30;;
10365;SDS011;5229;41.820;23.490;2023-02-25T15:11:21;11.43;;;6.60;;
10365;SDS011;5229;41.820;23.490;2023-02-25T15:14:14;12.63;;;7.53;;
10365;SDS011;5229;41.820;23.490;2023-02-25T15:17:08;13.60;;;8.07;;
10365;SDS011;5229;41.820;23.490;2023-02-25T15:20:04;13.07;;;4.27;;
10365;SDS011;5229;41.820;23.490;2023-02-25T15:22:51;13.73;;;4.83;;
10365;SDS011;5229;41.820;23.490;2023-02-25T15:37:18;6.97;;;2.47;;
10365;SDS011;5229;41.820;23.490;2023-02-25T15:39:49;7.43;;;4.10;;
10365;SDS011;5229;41.820;23.490;2023-02-25T15:50:59;9.13;;;2.67;;
10365;SDS011;5229;41.820;23.490;2023-02-25T15:53:37;8.97;;;2.80;;
10365;SDS011;5229;41.820;23.490;2023-02-25T15:56:22;14.43;;;3.13;;
10365;SDS011;5229;41.820;23.490;2023-02-25T15:59:09;6.67;;;2.50;;